Latest Weather Observations for Lord Howe Island Windy Point

IDN60801

Issued at 7:32 pm EDT Thursday 19 January 2017 (issued every 30 minutes, with the page automatically refreshed every 10 minutes)

About weather observations | Map of weather stations | Latest weather observations for NSW | Other Formats
Station Details ID: 200715 Name: LORD HOWE ISLAND WINDY POINT Lat: -31.54 Lon: 159.07 Height: 4.0 m
Data from the previous 72 hours. | See also: Recent months for locations in New South Wales
Date/Time
EDT
Temp
°C
App
Temp
°C
Dew
Point
°C
Rel
Hum
%
Delta-T
°C
Wind Press
QNH
hPa
Press
MSL
hPa
Rain since
9am
mm
Dir  Spd
km/h
Gust
km/h
Spd
kts
Gust
kts
19/07:30pm - - - - - ESE 20 37 11 20 - - -
19/07:00pm - - - - - ESE 20 39 11 21 - - -
19/06:30pm - - - - - ESE 20 35 11 19 - - -
19/06:00pm - - - - - SE 17 33 9 18 - - -
19/05:30pm - - - - - S 22 39 12 21 - - -
19/05:00pm - - - - - ESE 20 37 11 20 - - -
19/04:30pm - - - - - SSE 19 39 10 21 - - -
19/04:00pm - - - - - ESE 24 41 13 22 - - -
19/03:45pm - - - - - ESE 24 48 13 26 - - -
19/03:30pm - - - - - S 19 43 10 23 - - -
19/03:00pm - - - - - S 20 43 11 23 - - -
19/02:30pm - - - - - S 17 32 9 17 - - -
19/02:12pm - - - - - S 28 50 15 27 - - -
19/02:00pm - - - - - S 20 39 11 21 - - -
19/01:32pm - - - - - S 28 50 15 27 - - -
19/01:30pm - - - - - S 24 39 13 21 - - -
19/01:00pm - - - - - S 20 39 11 21 - - -
19/12:30pm - - - - - S 20 44 11 24 - - -
19/12:00pm - - - - - SSE 22 48 12 26 - - -
19/11:38am - - - - - S 26 59 14 32 - - -
19/11:30am - - - - - SSE 24 48 13 26 - - -
19/11:07am - - - - - SSE 28 52 15 28 - - -
19/11:00am - - - - - SSE 26 46 14 25 - - -
19/10:30am - - - - - SE 24 39 13 21 - - -
19/10:00am - - - - - ESE 28 54 15 29 - - -
19/09:30am - - - - - ESE 28 46 15 25 - - -
19/09:09am - - - - - ESE 28 46 15 25 - - -
19/09:00am - - - - - ESE 22 37 12 20 - - -
19/08:30am - - - - - ESE 28 50 15 27 - - -
19/08:00am - - - - - ESE 28 50 15 27 - - -
19/07:30am - - - - - ESE 28 54 15 29 - - -
19/07:13am - - - - - ESE 28 48 15 26 - - -
19/07:00am - - - - - SE 26 43 14 23 - - -
19/06:45am - - - - - SE 28 46 15 25 - - -
19/06:30am - - - - - SE 28 43 15 23 - - -
19/06:00am - - - - - SE 22 35 12 19 - - -
19/05:30am - - - - - ESE 19 33 10 18 - - -
19/05:00am - - - - - SE 13 22 7 12 - - -
19/04:30am - - - - - SE 15 28 8 15 - - -
19/04:00am - - - - - SE 11 26 6 14 - - -
19/03:30am - - - - - ESE 17 33 9 18 - - -
19/03:11am - - - - - S 32 46 17 25 - - -
19/03:00am - - - - - SSW 44 56 24 30 - - -
19/02:41am - - - - - SW 32 52 17 28 - - -
19/02:30am - - - - - WSW 28 33 15 18 - - -
19/02:00am - - - - - W 28 32 15 17 - - -
19/01:30am - - - - - W 26 30 14 16 - - -
19/01:00am - - - - - W 28 32 15 17 - - -
19/12:30am - - - - - W 30 35 16 19 - - -
19/12:00am - - - - - W 30 35 16 19 - - -
 
Date/Time
EDT
Temp
°C
App
Temp
°C
Dew
Point
°C
Rel
Hum
%
Delta-T
°C
Wind Press
QNH
hPa
Press
MSL
hPa
Rain since
9am
mm
Dir  Spd
km/h
Gust
km/h
Spd
kts
Gust
kts
18/11:30pm - - - - - W 28 32 15 17 - - -
18/11:00pm - - - - - WNW 28 35 15 19 - - -
18/10:30pm - - - - - WNW 26 35 14 19 - - -
18/10:00pm - - - - - WNW 20 28 11 15 - - -
18/09:30pm - - - - - WNW 20 28 11 15 - - -
18/09:00pm - - - - - WNW 22 30 12 16 - - -
18/08:30pm - - - - - WNW 24 33 13 18 - - -
18/08:00pm - - - - - NW 26 35 14 19 - - -
18/07:30pm - - - - - NW 30 39 16 21 - - -
18/07:00pm - - - - - NW 32 43 17 23 - - -
18/06:30pm - - - - - NW 35 44 19 24 - - -
18/06:00pm - - - - - NW 33 44 18 24 - - -
18/05:30pm - - - - - NW 35 46 19 25 - - -
18/05:00pm - - - - - NW 32 46 17 25 - - -
18/04:30pm - - - - - NW 35 48 19 26 - - -
18/04:00pm - - - - - NW 35 50 19 27 - - -
18/03:30pm - - - - - NW 37 50 20 27 - - -
18/03:00pm - - - - - NW 37 46 20 25 - - -
18/02:30pm - - - - - NW 37 48 20 26 - - -
18/02:00pm - - - - - NW 33 44 18 24 - - -
18/01:30pm - - - - - NW 32 43 17 23 - - -
18/01:12pm - - - - - NW 28 46 15 25 - - -
18/01:00pm - - - - - NW 32 46 17 25 - - -
18/12:30pm - - - - - NW 33 41 18 22 - - -
18/12:00pm - - - - - NW 33 43 18 23 - - -
18/11:30am - - - - - NW 30 39 16 21 - - -
18/11:00am - - - - - NW 28 44 15 24 - - -
18/10:30am - - - - - NW 28 35 15 19 - - -
18/10:00am - - - - - NW 28 39 15 21 - - -
18/09:30am - - - - - NW 26 33 14 18 - - -
18/09:00am - - - - - NW 22 32 12 17 - - -
18/08:30am - - - - - NW 24 33 13 18 - - -
18/08:00am - - - - - NW 20 30 11 16 - - -
18/07:30am - - - - - NW 19 28 10 15 - - -
18/07:00am - - - - - NW 26 35 14 19 - - -
18/06:51am - - - - - NW 28 44 15 24 - - -
18/06:30am - - - - - NW 13 20 7 11 - - -
18/06:00am - - - - - NW 13 26 7 14 - - -
18/05:30am - - - - - NW 13 22 7 12 - - -
18/05:00am - - - - - NW 15 20 8 11 - - -
18/04:30am - - - - - NW 13 22 7 12 - - -
18/04:00am - - - - - NNW 7 17 4 9 - - -
18/03:30am - - - - - NW 9 24 5 13 - - -
18/03:00am - - - - - NE 9 17 5 9 - - -
18/02:30am - - - - - NE 7 17 4 9 - - -
18/02:00am - - - - - N 9 17 5 9 - - -
18/01:30am - - - - - NNE 11 20 6 11 - - -
18/01:00am - - - - - NE 6 13 3 7 - - -
18/12:30am - - - - - NNE 13 20 7 11 - - -
18/12:00am - - - - - NNE 11 17 6 9 - - -
 
Date/Time
EDT
Temp
°C
App
Temp
°C
Dew
Point
°C
Rel
Hum
%
Delta-T
°C
Wind Press
QNH
hPa
Press
MSL
hPa
Rain since
9am
mm
Dir  Spd
km/h
Gust
km/h
Spd
kts
Gust
kts
17/11:30pm - - - - - NNE 11 17 6 9 - - -
17/11:00pm - - - - - NNE 7 11 4 6 - - -
17/10:30pm - - - - - NNE 7 11 4 6 - - -
17/10:00pm - - - - - NE 6 7 3 4 - - -
17/09:30pm - - - - - NE 7 9 4 5 - - -
17/09:00pm - - - - - NNE 7 13 4 7 - - -
17/08:30pm - - - - - NNE 7 9 4 5 - - -
17/08:00pm - - - - - NNE 9 17 5 9 - - -
17/07:30pm - - - - - NNE 9 15 5 8 - - -
17/07:00pm - - - - - NNE 11 15 6 8 - - -
17/06:30pm - - - - - N 11 17 6 9 - - -
17/06:00pm - - - - - NNE 17 22 9 12 - - -
17/05:30pm - - - - - N 13 20 7 11 - - -
17/05:00pm - - - - - N 13 20 7 11 - - -
17/04:30pm - - - - - NNE 15 22 8 12 - - -
17/04:00pm - - - - - NNE 17 20 9 11 - - -
17/03:30pm - - - - - N 17 24 9 13 - - -
17/03:00pm - - - - - N 17 24 9 13 - - -
17/02:30pm - - - - - N 17 30 9 16 - - -
17/02:00pm - - - - - N 20 32 11 17 - - -
17/01:30pm - - - - - NNE 17 30 9 16 - - -
17/01:00pm - - - - - N 15 24 8 13 - - -
17/12:30pm - - - - - NNE 15 22 8 12 - - -
17/12:00pm - - - - - NE 17 26 9 14 - - -
17/11:30am - - - - - NE 17 22 9 12 - - -
17/11:00am - - - - - NE 15 22 8 12 - - -
17/10:30am - - - - - N 15 20 8 11 - - -
17/10:00am - - - - - NE 13 20 7 11 - - -
17/09:30am - - - - - NE 15 20 8 11 - - -
17/09:00am - - - - - ENE 13 17 7 9 - - -
17/08:30am - - - - - E 19 26 10 14 - - -
17/08:00am - - - - - NE 11 15 6 8 - - -
17/07:30am - - - - - ENE 15 20 8 11 - - -
17/07:00am - - - - - E 9 15 5 8 - - -
17/06:30am - - - - - ENE 7 13 4 7 - - -
17/06:00am - - - - - ENE 6 11 3 6 - - -
17/05:30am - - - - - ENE 6 15 3 8 - - -
17/05:00am - - - - - NNE 9 13 5 7 - - -
17/04:30am - - - - - NNE 9 15 5 8 - - -
17/04:00am - - - - - NE 6 11 3 6 - - -
17/03:30am - - - - - NNE 7 13 4 7 - - -
17/03:00am - - - - - NE 7 11 4 6 - - -
17/02:30am - - - - - NNE 6 11 3 6 - - -
17/02:00am - - - - - NNE 9 11 5 6 - - -
17/01:30am - - - - - NNE 7 13 4 7 - - -
17/01:00am - - - - - NNE 11 17 6 9 - - -
17/12:30am - - - - - N 13 19 7 10 - - -
17/12:00am - - - - - NNE 11 15 6 8 - - -
 
Date/Time
EDT
Temp
°C
App
Temp
°C
Dew
Point
°C
Rel
Hum
%
Delta-T
°C
Wind Press
QNH
hPa
Press
MSL
hPa
Rain since
9am
mm
Dir  Spd
km/h
Gust
km/h
Spd
kts
Gust
kts
16/11:30pm - - - - - NE 7 13 4 7 - - -
16/11:00pm - - - - - ENE 13 19 7 10 - - -
16/10:30pm - - - - - ENE 13 20 7 11 - - -
16/10:00pm - - - - - ENE 17 24 9 13 - - -
16/09:30pm - - - - - ENE 15 20 8 11 - - -
16/09:00pm - - - - - ENE 13 19 7 10 - - -
16/08:30pm - - - - - ENE 15 20 8 11 - - -
16/08:00pm - - - - - ENE 17 20 9 11 - - -

Other Formats:

Comma delimited format used in spreadsheet applications
http://www.bom.gov.au/fwo/IDN60801/IDN60801.95995.axf

JavaScript Object Notation format (JSON) in row-major order
http://www.bom.gov.au/fwo/IDN60801/IDN60801.95995.json